Ufa International Airport
UWUU : now visible

Airfield :











YOU CAN JOIN US ON...

 
LOGIN :

Register | Disclaimer

   EN    FR    IT 

 









Legend :    VFR   Marginal VFR   IFR   Intensive IFR   Very Intensive IFR
Visi :
Ceiling :
>= 8 km
>= 3000ft
5 to 8 km
1000 to 3000 ft
1500m to 5 km
500 to 1000 ft
800 to 1500m
200 to 500 ft
< 800m
< 200 ft
Symbols :   Thunderstorms  Fog  Heavy snow  Heavy precipitations  Wind > 20 kt







- Airport Elevation : 449 ft
- IATA code : UFA


UWUU - Ufa International

CURRENT METAR :
  • 200830Z 05002MPS 9999 BKN040 25/13 Q1012 R32L/0///60 NOSIG

EXPIRED METARs :
  • 200800Z VRB01MPS CAVOK 25/12 Q1012 R32L/0///60 NOSIG
  • 200730Z 06002MPS CAVOK 25/12 Q1012 R32L/0///60 NOSIG
  • 200700Z VRB01MPS CAVOK 25/13 Q1012 R32L/0///60 NOSIG
  • 200630Z 06002MPS CAVOK 25/12 Q1012 R32L/0///60 NOSIG
  • 200600Z VRB01MPS CAVOK 24/13 Q1012 R32L/0///60 NOSIG

TAF TAF UWUU
Valid from the 20 at 09:00 until the 21 at 09:00 UTC


200754Z 2009/2109 32003MPS 9999 BKN020CB
TEMPO 2009/2020 30006G18MPS 3100 -TSRAGR BKN011CB
TEMPO 2020/2103 25003MPS 3100 BR
TEMPO 2103/2109 34005G11MPS
UWUU FIR / Europe



MET'MAP, your aeronautical weather chart ! - Copyright ORBIFLY December 2007 - Disclaimer

ORBIFLY MET'MAP TEAM :

Programming & Development : Alexandra Zaïnal
Concept & Development : Baudouin d'Aumeries
Co-Development & Prog : Marc-Olivier Méhu
Technical & hardware support : Manuel Goepfert

Contact : metmap@orbifly.com




SOURCES & CREDITS :

   NOAA       Earth
Advisory